createdAt,value
2023-04-15T00:02:27.106Z,96261.81
2023-04-15T00:05:12.356Z,96264.13
2023-04-15T00:07:57.677Z,96257.56
2023-04-15T00:10:43.191Z,96264.31
2023-04-15T00:13:28.549Z,96259.50
2023-04-15T00:16:13.623Z,96257.56
2023-04-15T00:18:59.344Z,96255.00
2023-04-15T00:21:44.835Z,96264.59
2023-04-15T00:24:29.918Z,96267.38
2023-04-15T00:27:15.144Z,96260.09
2023-04-15T00:30:00.724Z,96262.34
2023-04-15T00:32:46.154Z,96256.78
2023-04-15T00:35:31.640Z,96260.03
2023-04-15T00:38:17.010Z,96257.28
2023-04-15T00:41:01.770Z,96261.75
2023-04-15T00:43:47.326Z,96263.19
2023-04-15T00:46:32.773Z,96258.31
2023-04-15T00:49:17.713Z,96267.56
2023-04-15T00:52:03.295Z,96260.91
2023-04-15T00:54:48.601Z,96257.56
2023-04-15T00:57:33.903Z,96256.53
2023-04-15T01:00:19.168Z,96256.16
2023-04-15T01:03:04.523Z,96248.19
2023-04-15T01:05:49.833Z,96252.13
2023-04-15T01:08:35.206Z,96253.00
2023-04-15T01:11:20.301Z,96254.38
2023-04-15T01:14:05.691Z,96250.59
2023-04-15T01:16:51.053Z,96249.31
2023-04-15T01:19:36.506Z,96253.69
2023-04-15T01:22:21.747Z,96254.63
2023-04-15T01:25:07.085Z,96261.47
2023-04-15T01:27:52.364Z,96255.66
2023-04-15T01:30:37.790Z,96252.88
2023-04-15T01:33:22.681Z,96253.44
2023-04-15T01:36:07.990Z,96253.44
2023-04-15T01:38:53.184Z,96249.50
2023-04-15T01:41:38.610Z,96243.66
2023-04-15T01:44:23.924Z,96248.78
2023-04-15T01:47:09.716Z,96245.94
2023-04-15T01:49:54.676Z,96254.19
2023-04-15T01:52:39.782Z,96248.94
2023-04-15T01:55:24.752Z,96243.28
2023-04-15T01:58:10.216Z,96246.19
2023-04-15T02:00:55.429Z,96235.25
2023-04-15T02:03:40.898Z,96244.75
2023-04-15T02:06:26.165Z,96243.22
2023-04-15T02:09:11.672Z,96244.75
2023-04-15T02:11:56.642Z,96247.25
2023-04-15T02:14:41.961Z,96242.63
2023-04-15T02:17:27.502Z,96243.88
2023-04-15T02:20:12.917Z,96234.06
2023-04-15T02:22:58.400Z,96236.88
2023-04-15T02:25:43.486Z,96238.22
2023-04-15T02:28:39.125Z,96234.00
2023-04-15T02:31:24.511Z,96232.22
2023-04-15T02:34:09.705Z,96227.38
2023-04-15T02:36:55.206Z,96233.91
2023-04-15T02:39:40.724Z,96233.34
2023-04-15T02:42:26.220Z,96238.63
2023-04-15T02:45:11.268Z,96227.38
2023-04-15T02:47:56.799Z,96234.13
2023-04-15T02:50:42.221Z,96232.81
2023-04-15T02:53:27.705Z,96229.88
2023-04-15T02:56:13.175Z,96219.03
2023-04-15T02:58:58.742Z,96234.94
2023-04-15T03:01:43.887Z,96235.53
2023-04-15T03:04:29.043Z,96231.13
2023-04-15T03:07:14.520Z,96225.78
2023-04-15T03:09:59.647Z,96228.56
2023-04-15T03:12:45.045Z,96222.78
2023-04-15T03:15:30.565Z,96226.09
2023-04-15T03:18:15.868Z,96224.66
2023-04-15T03:21:01.437Z,96228.13
2023-04-15T03:23:49.191Z,96226.09
2023-04-15T03:26:34.175Z,96223.66
2023-04-15T03:29:19.103Z,96225.69
2023-04-15T03:32:04.305Z,96226.03
2023-04-15T03:34:49.905Z,96225.75
2023-04-15T03:37:35.251Z,96225.19
2023-04-15T03:40:20.498Z,96219.56
2023-04-15T03:43:05.464Z,96217.13
2023-04-15T03:45:50.716Z,96217.41
2023-04-15T03:48:35.586Z,96207.38
2023-04-15T03:51:20.611Z,96217.56
2023-04-15T03:54:05.906Z,96226.03
2023-04-15T03:56:51.257Z,96227.06
2023-04-15T03:59:36.701Z,96226.91
2023-04-15T04:02:22.267Z,96224.59
2023-04-15T04:05:07.433Z,96216.41
2023-04-15T04:07:52.278Z,96221.75
2023-04-15T04:10:37.452Z,96217.13
2023-04-15T04:13:22.662Z,96221.81
2023-04-15T04:16:07.929Z,96210.84
2023-04-15T04:18:53.214Z,96218.88
2023-04-15T04:21:38.282Z,96219.09
2023-04-15T04:24:23.570Z,96226.69
2023-04-15T04:27:09.005Z,96228.72
2023-04-15T04:29:54.190Z,96228.22
2023-04-15T04:32:39.574Z,96222.41
2023-04-15T04:35:24.813Z,96218.31
2023-04-15T04:38:10.128Z,96221.38
2023-04-15T04:40:55.623Z,96223.56
2023-04-15T04:43:40.685Z,96220.56
2023-04-15T04:46:26.245Z,96210.16
2023-04-15T04:49:11.537Z,96209.06
2023-04-15T04:51:56.924Z,96203.44
2023-04-15T04:54:42.394Z,96203.19
2023-04-15T04:57:27.641Z,96201.28
2023-04-15T05:00:12.563Z,96200.78
2023-04-15T05:02:57.965Z,96191.97
2023-04-15T05:05:44.291Z,96196.03
2023-04-15T05:08:29.520Z,96193.38
2023-04-15T05:11:14.849Z,96197.28
2023-04-15T05:14:00.308Z,96201.59
2023-04-15T05:16:45.636Z,96201.84
2023-04-15T05:19:31.058Z,96203.06
2023-04-15T05:22:16.241Z,96203.56
2023-04-15T05:25:01.721Z,96202.69
2023-04-15T05:27:47.234Z,96192.66
2023-04-15T05:30:32.610Z,96184.31
2023-04-15T05:33:17.857Z,96192.94
2023-04-15T05:36:03.093Z,96190.53
2023-04-15T05:38:48.168Z,96193.53
2023-04-15T05:41:33.436Z,96204.91
2023-04-15T05:44:18.641Z,96200.44
2023-04-15T05:47:03.958Z,96202.56
2023-04-15T05:49:49.477Z,96197.34
2023-04-15T05:52:34.828Z,96196.03
2023-04-15T05:55:20.311Z,96204.16
2023-04-15T05:58:05.757Z,96206.59
2023-04-15T06:00:51.196Z,96212.09
2023-04-15T06:03:36.674Z,96207.84
2023-04-15T06:06:22.025Z,96207.84
2023-04-15T06:09:07.290Z,96211.66
2023-04-15T06:11:52.568Z,96216.88
2023-04-15T06:14:38.119Z,96223.09
2023-04-15T06:17:23.426Z,96227.22
2023-04-15T06:20:08.751Z,96223.22
2023-04-15T06:22:54.140Z,96224.81
2023-04-15T06:25:39.437Z,96222.09
2023-04-15T06:28:24.784Z,96227.06
2023-04-15T06:31:09.967Z,96224.13
2023-04-15T06:33:55.303Z,96229.91
2023-04-15T06:36:40.488Z,96227.22
2023-04-15T06:39:25.976Z,96236.34
2023-04-15T06:42:11.159Z,96225.16
2023-04-15T06:44:56.134Z,96239.75
2023-04-15T06:47:41.462Z,96243.56
2023-04-15T06:50:27.053Z,96239.13
2023-04-15T06:53:12.498Z,96238.88
2023-04-15T06:55:57.828Z,96237.09
2023-04-15T06:58:43.216Z,96236.66
2023-04-15T07:01:28.591Z,96242.06
2023-04-15T07:04:13.996Z,96232.94
2023-04-15T07:06:59.044Z,96232.28
2023-04-15T07:09:44.520Z,96231.53
2023-04-15T07:12:29.976Z,96234.78
2023-04-15T07:15:15.233Z,96234.50
2023-04-15T07:18:00.887Z,96241.91
2023-04-15T07:20:46.035Z,96225.97
2023-04-15T07:23:31.404Z,96227.38
2023-04-15T07:26:16.916Z,96233.38
2023-04-15T07:29:02.506Z,96236.41
2023-04-15T07:31:47.671Z,96235.22
2023-04-15T07:34:33.095Z,96234.78
2023-04-15T07:37:18.545Z,96236.09
2023-04-15T07:40:04.028Z,96231.19
2023-04-15T07:42:49.337Z,96232.34
2023-04-15T07:45:34.686Z,96242.13
2023-04-15T07:48:19.983Z,96245.84
2023-04-15T07:51:05.225Z,96237.72
2023-04-15T07:53:50.544Z,96240.97
2023-04-15T07:56:36.012Z,96243.22
2023-04-15T07:59:21.546Z,96249.38
2023-04-15T08:02:07.061Z,96258.72
2023-04-15T08:04:52.322Z,96246.00
2023-04-15T08:07:37.580Z,96235.72
2023-04-15T08:10:23.003Z,96236.84
2023-04-15T08:13:08.358Z,96240.00
2023-04-15T08:15:53.600Z,96241.25
2023-04-15T08:18:39.076Z,96238.75
2023-04-15T08:21:24.391Z,96249.31
2023-04-15T08:24:09.560Z,96252.25
2023-04-15T08:26:54.919Z,96254.66
2023-04-15T08:29:40.094Z,96263.56
2023-04-15T08:32:25.908Z,96261.28
2023-04-15T08:35:10.960Z,96262.31
2023-04-15T08:37:56.289Z,96260.63
2023-04-15T08:40:41.559Z,96265.00
2023-04-15T08:43:26.758Z,96267.66
2023-04-15T08:46:12.108Z,96273.00
2023-04-15T08:48:57.388Z,96278.34
2023-04-15T08:51:42.850Z,96280.44
2023-04-15T08:54:28.128Z,96279.53
2023-04-15T08:57:13.537Z,96287.44
2023-04-15T08:59:58.751Z,96294.44
2023-04-15T09:02:44.286Z,96299.00
2023-04-15T09:05:29.372Z,96292.16
2023-04-15T09:08:14.455Z,96304.31
2023-04-15T09:11:00.010Z,96302.66
2023-04-15T09:13:45.281Z,96311.22
2023-04-15T09:16:30.586Z,96311.41
2023-04-15T09:19:15.935Z,96306.69
2023-04-15T09:22:01.246Z,96309.31
2023-04-15T09:24:46.596Z,96318.44
2023-04-15T09:27:31.874Z,96321.22
2023-04-15T09:30:17.362Z,96324.50
2023-04-15T09:33:02.675Z,96330.59
2023-04-15T09:35:47.991Z,96334.88
2023-04-15T09:38:33.555Z,96342.25
2023-04-15T09:41:18.781Z,96345.59
2023-04-15T09:44:04.036Z,96353.97
2023-04-15T09:46:49.232Z,96356.41
2023-04-15T09:49:34.691Z,96352.69
2023-04-15T09:52:19.954Z,96364.47
2023-04-15T09:55:05.328Z,96366.81
2023-04-15T09:57:50.562Z,96374.53
2023-04-15T10:00:35.912Z,96371.69
2023-04-15T10:03:21.412Z,96377.44
2023-04-15T10:06:06.583Z,96376.50
2023-04-15T10:08:51.972Z,96386.50
2023-04-15T10:11:37.226Z,96387.06
2023-04-15T10:14:22.512Z,96394.22
2023-04-15T10:17:08.004Z,96391.22
2023-04-15T10:19:53.405Z,96392.91
2023-04-15T10:22:38.755Z,96397.94
2023-04-15T10:25:24.060Z,96396.38
2023-04-15T10:28:09.532Z,96402.72
2023-04-15T10:30:55.019Z,96408.72
2023-04-15T10:33:40.234Z,96406.13
2023-04-15T10:36:25.602Z,96408.28
2023-04-15T10:39:10.843Z,96411.28
2023-04-15T10:41:56.295Z,96411.28
2023-04-15T10:44:41.683Z,96407.69
2023-04-15T10:47:27.003Z,96410.06
2023-04-15T10:50:12.355Z,96419.28
2023-04-15T10:52:57.654Z,96421.06
2023-04-15T10:55:43.159Z,96420.63
2023-04-15T10:58:28.551Z,96437.34
2023-04-15T11:01:13.814Z,96427.44
2023-04-15T11:03:59.403Z,96429.88
2023-04-15T11:06:44.549Z,96438.38
2023-04-15T11:09:29.937Z,96442.44
2023-04-15T11:12:15.334Z,96438.91
2023-04-15T11:15:00.401Z,96454.66
2023-04-15T11:17:46.619Z,96453.47
2023-04-15T11:20:31.832Z,96452.53
2023-04-15T11:23:18.089Z,96458.47
2023-04-15T11:26:03.251Z,96458.63
2023-04-15T11:28:48.766Z,96463.34
2023-04-15T11:31:34.463Z,96458.06
2023-04-15T11:34:19.693Z,96463.09
2023-04-15T11:37:05.250Z,96458.00
2023-04-15T11:39:51.066Z,96464.34
2023-04-15T11:42:48.519Z,96463.38
2023-04-15T11:45:34.628Z,96469.84
2023-04-15T11:48:19.889Z,96476.38
2023-04-15T11:51:05.696Z,96474.94
2023-04-15T11:53:51.193Z,96482.72
2023-04-15T11:56:36.789Z,96483.97
2023-04-15T11:59:22.310Z,96488.59
2023-04-15T12:02:08.347Z,96495.81
2023-04-15T12:04:53.884Z,96494.63
2023-04-15T12:07:39.407Z,96500.06
2023-04-15T12:10:24.848Z,96501.06
2023-04-15T12:13:10.557Z,96507.97
2023-04-15T12:15:56.308Z,96506.91
2023-04-15T12:18:42.023Z,96513.31
2023-04-15T12:21:27.551Z,96514.00
2023-04-15T12:24:12.774Z,96517.72
2023-04-15T12:26:58.109Z,96528.41
2023-04-15T12:29:43.536Z,96528.22
2023-04-15T12:32:29.090Z,96530.44
2023-04-15T12:35:14.461Z,96534.06
2023-04-15T12:37:59.839Z,96536.19
2023-04-15T12:40:46.096Z,96539.00
2023-04-15T12:43:32.257Z,96547.59
2023-04-15T12:46:18.135Z,96549.47
2023-04-15T12:49:03.570Z,96555.97
2023-04-15T12:51:49.449Z,96552.75
2023-04-15T12:54:35.165Z,96555.63
2023-04-15T12:57:20.622Z,96563.31
2023-04-15T13:00:06.706Z,96565.13
2023-04-15T13:02:52.245Z,96567.38
2023-04-15T13:05:37.262Z,96569.44
2023-04-15T13:08:22.666Z,96578.25
2023-04-15T13:11:08.504Z,96576.94
2023-04-15T13:13:53.377Z,96576.44
2023-04-15T13:16:38.789Z,96591.13
2023-04-15T13:19:24.518Z,96588.41
2023-04-15T13:22:09.627Z,96593.66
2023-04-15T13:24:55.186Z,96593.28
2023-04-15T13:27:40.645Z,96594.94
2023-04-15T13:30:25.965Z,96596.66
2023-04-15T13:33:11.553Z,96606.25
2023-04-15T13:35:57.259Z,96614.47
2023-04-15T13:38:42.833Z,96607.72
2023-04-15T13:41:28.344Z,96611.19
2023-04-15T13:44:13.940Z,96612.81
2023-04-15T13:46:59.326Z,96619.16
2023-04-15T13:49:44.685Z,96620.50
2023-04-15T13:52:30.338Z,96622.06
2023-04-15T13:55:19.939Z,96625.56
2023-04-15T13:58:06.661Z,96629.16
2023-04-15T14:00:51.963Z,96627.00
2023-04-15T14:03:38.470Z,96635.13
2023-04-15T14:06:24.641Z,96635.13
2023-04-15T14:09:10.468Z,96639.47
2023-04-15T14:11:55.703Z,96656.75
2023-04-15T14:14:41.547Z,96642.53
2023-04-15T14:17:27.174Z,96648.47
2023-04-15T14:20:13.239Z,96646.84
2023-04-15T14:23:00.319Z,96661.84
2023-04-15T14:25:47.917Z,96660.22
2023-04-15T14:28:33.965Z,96659.88
2023-04-15T14:31:19.377Z,96664.59
2023-04-15T14:34:05.325Z,96663.44
2023-04-15T14:36:51.048Z,96674.88
2023-04-15T14:39:36.397Z,96678.50
2023-04-15T14:42:21.772Z,96675.63
2023-04-15T14:45:07.311Z,96679.91
2023-04-15T14:47:52.685Z,96683.53
2023-04-15T14:50:38.034Z,96694.13
2023-04-15T14:53:23.450Z,96692.75
2023-04-15T14:56:09.096Z,96693.56
2023-04-15T14:58:54.471Z,96696.28
2023-04-15T15:01:39.733Z,96698.16
2023-04-15T15:04:25.290Z,96704.91
2023-04-15T15:07:10.664Z,96711.19
2023-04-15T15:09:56.071Z,96719.47
2023-04-15T15:12:41.377Z,96717.59
2023-04-15T15:15:29.075Z,96716.72
2023-04-15T15:18:14.645Z,96727.03
2023-04-15T15:21:00.058Z,96721.84
2023-04-15T15:23:45.517Z,96731.03
2023-04-15T15:26:31.378Z,96729.16
2023-04-15T15:29:16.841Z,96740.56
2023-04-15T15:32:02.144Z,96746.25
2023-04-15T15:34:47.786Z,96747.88
2023-04-15T15:37:32.712Z,96742.69
2023-04-15T15:40:19.635Z,96749.44
2023-04-15T15:43:05.155Z,96751.44
2023-04-15T15:45:50.429Z,96756.03
2023-04-15T15:48:35.668Z,96765.56
2023-04-15T15:51:21.116Z,96765.53
2023-04-15T15:54:06.543Z,96771.25
2023-04-15T15:56:52.012Z,96773.31
2023-04-15T15:59:37.504Z,96778.34
2023-04-15T16:02:40.064Z,96781.84
2023-04-15T16:05:28.313Z,96787.59
2023-04-15T16:08:13.927Z,96796.28
2023-04-15T16:10:59.013Z,96792.44
2023-04-15T16:13:44.585Z,96800.56
2023-04-15T16:16:30.201Z,96805.19
2023-04-15T16:19:16.532Z,96809.03
2023-04-15T16:22:02.179Z,96808.47
2023-04-15T16:24:47.478Z,96812.03
2023-04-15T16:27:33.812Z,96812.53
2023-04-15T16:30:22.078Z,96821.75
2023-04-15T16:33:09.375Z,96828.88
2023-04-15T16:35:54.613Z,96824.53
2023-04-15T16:38:40.151Z,96840.53
2023-04-15T16:41:25.463Z,96841.94
2023-04-15T16:44:10.719Z,96850.56
2023-04-15T16:46:56.147Z,96853.03
2023-04-15T16:49:41.462Z,96863.66
2023-04-15T16:52:26.874Z,96872.91
2023-04-15T16:55:12.167Z,96880.31
2023-04-15T16:58:01.642Z,96873.28
2023-04-15T17:00:47.969Z,96883.59
2023-04-15T17:03:34.019Z,96889.28
2023-04-15T17:06:19.584Z,96898.22
2023-04-15T17:09:05.583Z,96901.25
2023-04-15T17:11:51.046Z,96898.25
2023-04-15T17:14:36.623Z,96902.31
2023-04-15T17:17:22.081Z,96901.75
2023-04-15T17:20:07.176Z,96900.41
2023-04-15T17:22:53.200Z,96903.66
2023-04-15T17:25:38.414Z,96913.69
2023-04-15T17:28:23.797Z,96907.44
2023-04-15T17:31:09.162Z,96904.22
2023-04-15T17:34:01.772Z,96908.00
2023-04-15T17:36:55.626Z,96917.78
2023-04-15T17:39:40.689Z,96935.16
2023-04-15T17:42:26.025Z,96943.53
2023-04-15T17:45:11.447Z,96961.47
2023-04-15T17:47:56.875Z,96969.09
2023-04-15T17:50:43.578Z,96976.41
2023-04-15T17:53:28.661Z,96981.28
2023-04-15T17:56:14.088Z,96982.66
2023-04-15T17:58:59.361Z,96983.75
2023-04-15T18:01:44.973Z,96985.34
2023-04-15T18:04:32.357Z,96989.16
2023-04-15T18:07:18.167Z,96989.16
2023-04-15T18:10:04.297Z,96995.13
2023-04-15T18:12:49.778Z,96995.94
2023-04-15T18:15:35.388Z,97000.31
2023-04-15T18:18:21.031Z,97013.88
2023-04-15T18:21:07.131Z,97021.47
2023-04-15T18:23:53.918Z,97024.97
2023-04-15T18:26:39.043Z,97032.06
2023-04-15T18:29:24.331Z,97038.03
2023-04-15T18:32:09.759Z,97038.56
2023-04-15T18:34:55.065Z,97046.16
2023-04-15T18:37:40.374Z,97053.50
2023-04-15T18:40:25.981Z,97048.06
2023-04-15T18:43:11.607Z,97051.03
2023-04-15T18:45:57.416Z,97051.59
2023-04-15T18:48:42.483Z,97063.25
2023-04-15T18:51:27.877Z,97071.13
2023-04-15T18:54:12.993Z,97080.94
2023-04-15T18:56:58.274Z,97089.06
2023-04-15T18:59:43.812Z,97093.97
2023-04-15T19:02:29.314Z,97095.59
2023-04-15T19:05:15.009Z,97104.56
2023-04-15T19:08:00.131Z,97102.09
2023-04-15T19:10:45.284Z,97100.19
2023-04-15T19:13:30.793Z,97111.91
2023-04-15T19:16:16.132Z,97112.97
2023-04-15T19:19:01.599Z,97121.38
2023-04-15T19:21:46.564Z,97123.81
2023-04-15T19:24:33.168Z,97126.53
2023-04-15T19:27:18.335Z,97132.47
2023-04-15T19:30:03.621Z,97131.66
2023-04-15T19:32:49.451Z,97133.59
2023-04-15T19:35:34.652Z,97149.34
2023-04-15T19:38:21.636Z,97143.63
2023-04-15T19:41:08.165Z,97140.41
2023-04-15T19:43:56.314Z,97153.69
2023-04-15T19:46:41.905Z,97154.25
2023-04-15T19:49:27.298Z,97153.72
2023-04-15T19:52:12.768Z,97155.59
2023-04-15T19:54:58.153Z,97159.13
2023-04-15T19:57:43.492Z,97166.22
2023-04-15T20:00:28.733Z,97173.53
2023-04-15T20:03:13.935Z,97166.78
2023-04-15T20:05:59.232Z,97173.28
2023-04-15T20:08:44.672Z,97173.28
2023-04-15T20:12:47.477Z,97175.41
2023-04-15T20:14:34.949Z,97174.88
2023-04-15T20:17:20.169Z,97175.41
2023-04-15T20:20:05.268Z,97178.69
2023-04-15T20:22:50.513Z,97176.22
2023-04-15T20:25:35.987Z,97176.50
2023-04-15T20:28:21.256Z,97175.69
2023-04-15T20:31:06.633Z,97173.47
2023-04-15T20:33:51.624Z,97169.44
2023-04-15T20:36:36.699Z,97175.97
2023-04-15T20:39:22.029Z,97176.78
2023-04-15T20:42:07.101Z,97176.47
2023-04-15T20:44:52.594Z,97177.03
2023-04-15T20:47:37.954Z,97189.81
2023-04-15T20:50:23.388Z,97185.75
2023-04-15T20:53:08.569Z,97186.28
2023-04-15T20:55:53.841Z,97193.34
2023-04-15T20:58:39.057Z,97197.47
2023-04-15T21:01:24.394Z,97196.06
2023-04-15T21:04:09.654Z,97196.06
2023-04-15T21:06:54.811Z,97197.97
2023-04-15T21:09:39.867Z,97202.34
2023-04-15T21:12:25.178Z,97207.53
2023-04-15T21:15:10.701Z,97210.53
2023-04-15T21:17:55.966Z,97211.06
2023-04-15T21:20:41.450Z,97215.16
2023-04-15T21:23:26.877Z,97220.84
2023-04-15T21:26:12.142Z,97234.41
2023-04-15T21:28:57.605Z,97226.78
2023-04-15T21:31:43.084Z,97226.81
2023-04-15T21:34:31.375Z,97228.41
2023-04-15T21:37:16.632Z,97223.50
2023-04-15T21:40:01.949Z,97216.72
2023-04-15T21:42:47.050Z,97223.28
2023-04-15T21:45:32.309Z,97224.59
2023-04-15T21:48:17.620Z,97221.38
2023-04-15T21:51:03.018Z,97225.72
2023-04-15T21:53:48.138Z,97230.03
2023-04-15T21:56:33.331Z,97230.56
2023-04-15T21:59:18.750Z,97223.50
2023-04-15T22:02:04.035Z,97227.06
2023-04-15T22:04:49.154Z,97232.75
2023-04-15T22:07:34.267Z,97244.72
2023-04-15T22:10:19.875Z,97244.75
2023-04-15T22:13:05.095Z,97240.63
2023-04-15T22:15:50.454Z,97246.91
2023-04-15T22:18:35.870Z,97247.13
2023-04-15T22:21:21.279Z,97243.31
2023-04-15T22:24:38.155Z,97234.97
2023-04-15T22:27:11.551Z,97244.75
2023-04-15T22:29:56.771Z,97242.28
2023-04-15T22:32:42.129Z,97250.38
2023-04-15T22:35:27.439Z,97258.81
2023-04-15T22:38:12.464Z,97258.56
2023-04-15T22:40:57.780Z,97264.84
2023-04-15T22:43:43.207Z,97266.66
2023-04-15T22:46:28.577Z,97270.81
2023-04-15T22:49:13.968Z,97272.94
2023-04-15T22:51:59.429Z,97268.06
2023-04-15T22:54:44.693Z,97272.66
2023-04-15T22:57:30.097Z,97271.31
2023-04-15T23:00:15.452Z,97281.91
2023-04-15T23:03:01.258Z,97278.44
2023-04-15T23:05:46.400Z,97277.06
2023-04-15T23:08:31.760Z,97288.22
2023-04-15T23:11:17.366Z,97283.59
2023-04-15T23:14:03.878Z,97281.66
2023-04-15T23:16:48.952Z,97280.81
2023-04-15T23:19:34.369Z,97272.69
2023-04-15T23:22:19.675Z,97280.81
2023-04-15T23:25:05.007Z,97286.31
2023-04-15T23:27:50.234Z,97293.84
2023-04-15T23:30:35.845Z,97289.25
2023-04-15T23:33:21.248Z,97300.94
2023-04-15T23:36:06.504Z,97299.56
2023-04-15T23:38:51.928Z,97302.53
2023-04-15T23:41:37.433Z,97307.41
2023-04-15T23:44:22.931Z,97300.91
2023-04-15T23:47:08.404Z,97310.38
2023-04-15T23:49:53.669Z,97312.84
2023-04-15T23:52:39.111Z,97311.28
2023-04-15T23:55:24.199Z,97317.25
2023-04-15T23:58:09.605Z,97315.00
